This is the latest recevied weather packets stored in our database for station/object KB9PMA-1. If no packets are shown the sender has not sent any weather packets the latest 1 day(s).
| Time | Temp. | Humidity | Pressure | Rain* | Wind** | Luminosity | Snow |
|---|---|---|---|---|---|---|---|
| 1836274582 | 21.67° C | 65% | 1021.4 hPa | 0 mm | 0 m/s | - | - |
| 1836274432 | 21.11° C | 67% | 1021.4 hPa | 0 mm | 0 m/s | - | - |
| 1836274282 | 21.67° C | 64% | 1021.4 hPa | 0 mm | 0 m/s | - | - |
| 1836274132 | 21.11° C | 66% | 1021.4 hPa | 0 mm | 0 m/s | - | - |
| 1836273982 | 21.67° C | 64% | 1021.4 hPa | 0 mm | 0 m/s | - | - |
| 1778042875 | 7.22° C | 96% | 1011.8 hPa | 2.54 mm | 0 m/s | - | - |
| 1778042575 | 7.22° C | 95% | 1011.7 hPa | 2.79 mm | 0 m/s | - | - |
| 1778042275 | 7.78° C | 96% | 1011.5 hPa | 3.3 mm | 0 m/s | - | - |
| 1778041975 | 7.78° C | 96% | 1011.4 hPa | 3.3 mm | 0 m/s | - | - |
| 1778041675 | 7.78° C | 96% | 1011.2 hPa | 3.05 mm | 0 m/s | - | - |
| 1778041375 | 7.78° C | 96% | 1011.2 hPa | 3.56 mm | 0 m/s | - | - |
| 1778041075 | 7.78° C | 96% | 1011.1 hPa | 3.56 mm | 0 m/s | - | - |
| 1778040775 | 7.78° C | 96% | 1011.1 hPa | 3.3 mm | 0 m/s | - | - |
| 1778040475 | 7.78° C | 96% | 1011.3 hPa | 3.3 mm | 0 m/s | - | - |
| 1778040175 | 8.33° C | 96% | 1011.2 hPa | 3.3 mm | 0 m/s | - | - |
| 1778039875 | 8.33° C | 96% | 1011.3 hPa | 3.3 mm | 0 m/s | - | - |
| 1778039575 | 8.33° C | 96% | 1011.3 hPa | 3.56 mm | 0 m/s | - | - |
| 1778039275 | 8.33° C | 96% | 1011.4 hPa | 3.56 mm | 0 m/s | - | - |
| 1778038975 | 8.33° C | 96% | 1011.4 hPa | 3.56 mm | 0 m/s | - | - |
| 1778038675 | 8.33° C | 96% | 1011.3 hPa | 3.56 mm | 0 m/s | - | - |
| 1778038375 | 8.33° C | 96% | 1011.2 hPa | 3.56 mm | 0 m/s | - | - |
| 1778038075 | 8.33° C | 96% | 1011.2 hPa | 3.81 mm | 0 m/s | - | - |
| 1778037775 | 8.89° C | 96% | 1011.1 hPa | 3.3 mm | 0 m/s | - | - |
| 1778037475 | 8.33° C | 96% | 1011 hPa | 3.3 mm | 0 m/s | - | - |
| 1778037175 | 8.33° C | 96% | 1010.9 hPa | 3.56 mm | 0 m/s | - | - |
* Rain latest hour (hover to see other rain measurements)
** Current wind speed in m/s (hover to see current wind gust speed)